»·PEaware :: N927CF KHII-KHND

N927CF :: KHII-KHND

FLIGHT INFORMATION

Flight Status: Arrived
Operator: Privately registered:
United States
More flights under this callsign
Pilot: Mark P. (13279)
Aircraft: BEECH AIRCRAFT DEBONAIR BONANZA
(BE33)
More flights by this aircraft type
Origin: KHII Lake Havasu City
United States
Destination: KHND Henderson
United States
More flights between these airports :: More routes between these airports
Route: EED V237 BLD
File this flight plan on PilotEdge
Remarks:
Altitude:
(Current/Filed)
8,000ft
Speed:
(Current/Filed)
160kts
Departed: 22-Dec-16 05:07 PM
Arrived: 22-Dec-16 05:55 PM
Distance/Time
Traveled:
92nm/0:48
Distance/Time
To Go:
Arrived

Flight Plot

Page will automatically refresh every two minutes.

Flight plan parsing failed; only flown route is shown


Map Options




Map Legend


Flown Route
Filed Route
Departure Airport
Arrival Airport
Navaid (VOR, NDB)
Fix

Horizontal Profiles

Position Reports

Time Latitude Longitude Heading Altitude Ground
Speed
22-Dec-16 16:45 34.567722 -114.358876 60 783ft 0kts
22-Dec-16 16:46 34.567722 -114.358876 60 783ft 0kts
22-Dec-16 16:47 34.567722 -114.358876 60 783ft 0kts
22-Dec-16 16:48 34.567722 -114.358876 60 783ft 0kts
22-Dec-16 16:49 34.567909 -114.358504 55 782ft 8kts
22-Dec-16 16:50 34.566425 -114.356106 150 782ft 9kts
22-Dec-16 16:51 34.563776 -114.354235 150 783ft 12kts
22-Dec-16 16:52 34.561226 -114.352889 68 782ft 0kts
22-Dec-16 16:53 34.561226 -114.352889 68 782ft 0kts
22-Dec-16 16:54 34.561226 -114.352889 68 782ft 0kts
22-Dec-16 16:55 34.561226 -114.352889 68 782ft 0kts
22-Dec-16 16:56 34.561226 -114.352889 68 782ft 0kts
22-Dec-16 16:57 34.561226 -114.352889 68 782ft 0kts
22-Dec-16 16:58 34.561959 -114.351811 341 782ft 8kts
22-Dec-16 16:59 34.577828 -114.368505 306 1396ft 99kts
22-Dec-16 17:00 34.593852 -114.396746 294 2398ft 102kts
22-Dec-16 17:01 34.610088 -114.425543 323 3291ft 108kts
22-Dec-16 17:02 34.638971 -114.435451 345 4193ft 107kts
22-Dec-16 17:03 34.668812 -114.443912 345 5014ft 113kts
22-Dec-16 17:04 34.699048 -114.453759 347 5845ft 112kts
22-Dec-16 17:05 34.729731 -114.463098 342 6565ft 114kts
22-Dec-16 17:06 34.755756 -114.470089 347 7246ft 117kts
22-Dec-16 17:07 34.792766 -114.483160 328 8045ft 131kts
22-Dec-16 17:08 34.825731 -114.496371 335 8019ft 163kts
22-Dec-16 17:09 34.870801 -114.512866 340 7982ft 173kts
22-Dec-16 17:10 34.916305 -114.530592 337 7962ft 170kts
22-Dec-16 17:11 34.960265 -114.547930 338 7985ft 166kts
22-Dec-16 17:12 35.004151 -114.565474 339 7982ft 166kts
22-Dec-16 17:13 35.048116 -114.582662 342 7979ft 167kts
22-Dec-16 17:14 35.094998 -114.585819 349 7980ft 168kts
22-Dec-16 17:15 35.139518 -114.594233 347 7965ft 169kts
22-Dec-16 17:16 35.183118 -114.602420 346 7985ft 168kts
22-Dec-16 17:17 35.231568 -114.614203 344 7972ft 168kts
22-Dec-16 17:18 35.276823 -114.627780 343 7968ft 167kts
22-Dec-16 17:19 35.321814 -114.642397 340 7971ft 166kts
22-Dec-16 17:20 35.366623 -114.655576 345 7991ft 167kts
22-Dec-16 17:21 35.411882 -114.669038 342 8002ft 166kts
22-Dec-16 17:22 35.456782 -114.683519 341 7988ft 168kts
22-Dec-16 17:23 35.502073 -114.697227 342 8021ft 166kts
22-Dec-16 17:24 35.547031 -114.712257 341 8009ft 167kts
22-Dec-16 17:25 35.591872 -114.725209 341 7949ft 172kts
22-Dec-16 17:26 35.638016 -114.741575 337 7951ft 174kts
22-Dec-16 17:27 35.685271 -114.756419 343 7725ft 177kts
22-Dec-16 17:28 35.733188 -114.771778 336 7312ft 182kts
22-Dec-16 17:29 35.780836 -114.790190 343 7007ft 178kts
22-Dec-16 17:30 35.828877 -114.804017 345 6760ft 177kts
22-Dec-16 17:31 35.876434 -114.817595 341 6490ft 175kts
22-Dec-16 17:32 35.920449 -114.835080 338 6520ft 160kts
22-Dec-16 17:33 35.962925 -114.850567 333 6529ft 158kts
22-Dec-16 17:34 36.002975 -114.863865 347 6567ft 157kts
22-Dec-16 17:35 36.019490 -114.837921 188 6026ft 95kts
22-Dec-16 17:36 35.997533 -114.857859 220 5972ft 101kts
22-Dec-16 17:37 35.991726 -114.886499 257 5934ft 108kts
22-Dec-16 17:38 35.986521 -114.917333 265 5798ft 112kts
22-Dec-16 17:39 35.981989 -114.948819 263 5729ft 108kts
22-Dec-16 17:40 35.977024 -114.983045 260 5694ft 108kts
22-Dec-16 17:41 35.970537 -115.017098 260 5732ft 105kts
22-Dec-16 17:42 35.965670 -115.047596 263 5690ft 113kts
22-Dec-16 17:43 35.962522 -115.082163 296 5071ft 102kts
22-Dec-16 17:44 35.976178 -115.096721 325 4522ft 79kts
22-Dec-16 17:45 35.990647 -115.114091 298 3592ft 86kts
22-Dec-16 17:46 35.987472 -115.135428 170 2591ft 83kts
22-Dec-16 17:47 35.974486 -115.135530 224 2384ft 10kts
22-Dec-16 17:48 35.974416 -115.136684 271 2384ft 9kts

Navigation Log

Ident Type
Flight plan parsing failed, navigation log unavailable